Weather at Flight Safety Texas Heliport [CLOSED]

Public forecast

Using degrees Fahrenheit for public forecast. Weather courtesy of forecast.io.

Closest aviation weather report (METAR) to Flight Safety Texas Heliport

Closest report is Fort Worth Meacham International Airport, 9.1 nm (16.9 km) W.

2024/05/28 13:53 (retrieved 16 minutes ago)

KFTW 281353Z 05011KT 6SM TSRA BR FEW055 BKN090 OVC110 18/17 A3020 RMK AO2 PK WND 05035/1254 WSHFT 1256 LTG DSNT ALQDS TSB10 SLP219 P0070 T01780172

Closest aviation forecast (TAF) to Flight Safety Texas Heliport

Closest forecast is Fort Worth Meacham International Airport, 9.1 nm (16.9 km) W.

2024/05/28 13:30 Ammendment (retrieved 39 minutes ago)

TAF AMD KFTW 281328Z 2813/2912 02015G30KT 5SM TSRA BR SCT025 OVC060CB TEMPO 2813/2815 01030G40KT 1SM +TSRA BKN013CB FM281500 11008KT P6SM -SHRA VCTS BKN025CB TEMPO 2815/2818 5SM -TSRA BR OVC015CB FM281800 12009KT P6SM VCSH BKN045 FM290200 09009KT P6SM VCTS OVC060CB FM290800 11007KT 6SM BR VCSH BKN020